< Typhoon 201711 2017 Season
Typhoon 201712 (BANYAN)
Currently Active : Typhoon Track Forecast
General InformationTrack Information on Google MapsDetailed Wind InformationForecast History on Google MapsAccess Analytics MapList of All Images || NewsDisaster Info.WeblogTrackbackTyphoon FrontTwiphoonTyphoon Now!Typhoon ImaginationDisaster Info. XMLResourceGoogle EarthGE AnimationAtom FeedGeoJSON
Detalied Best Track (Time Zone = UTC)
Year Month Day Hour Lat. Long. Pressure (hPa) Wind (kt) Class Image Chart
2017 8 11 00 16.2 169.9 1008 30 2 Image Chart
2017 8 11 03 16.6 169.4 1008 30 2 Image Chart
2017 8 11 06 16.8 169.1 1006 30 2 Image Chart
2017 8 11 09 17.2 168.3 1006 30 2 Image Chart
2017 8 11 12 17.4 167.9 1004 35 3 Image Chart
2017 8 11 15 17.8 167.4 1004 35 3 Image Chart
2017 8 11 18 18.1 167.0 1004 35 3 Image Chart
2017 8 11 21 18.3 166.5 1004 35 3 Image Chart
2017 8 12 00 18.6 165.5 998 45 3 Image Chart
2017 8 12 03 18.8 165.1 998 45 3 Image Chart
2017 8 12 06 19.0 165.0 992 50 4 Image Chart
2017 8 12 09 19.5 164.9 992 50 4 Image Chart
2017 8 12 12 20.0 164.8 990 55 4 Image Chart
2017 8 12 15 20.2 164.6 990 55 4 Image Chart
2017 8 12 18 20.5 164.3 975 70 5 Image Chart
2017 8 12 21 20.7 164.3 975 70 5 Image Chart
2017 8 13 00 21.0 164.1 970 75 5 Image Chart
2017 8 13 03 21.3 164.0 970 75 5 Image Chart
2017 8 13 06 21.4 163.9 970 75 5 Image Chart
2017 8 13 09 21.6 163.8 970 75 5 Image Chart
2017 8 13 12 21.8 163.8 970 75 5 Image Chart
2017 8 13 15 21.9 163.7 970 75 5 Image Chart
2017 8 13 18 22.1 163.6 970 75 5 Image Chart
2017 8 13 21 22.4 163.5 970 75 5 Image Chart
2017 8 14 00 22.5 163.4 970 75 5 Image Chart
2017 8 14 03 22.8 163.4 970 75 5 Image Chart
2017 8 14 06 23.2 163.3 970 75 5 Image Chart
2017 8 14 09 23.7 163.3 970 75 5 Image Chart
2017 8 14 12 24.1 163.3 970 75 5 Image Chart
2017 8 14 15 24.4 162.9 970 75 5 Image Chart
2017 8 14 18 24.9 162.8 970 75 5 Image Chart
2017 8 14 21 25.4 162.7 970 75 5 Image Chart
2017 8 15 00 26.0 162.4 970 75 5 Image Chart
2017 8 15 03 26.5 162.3 970 75 5 Image Chart
2017 8 15 06 27.1 162.2 970 75 5 Image Chart
2017 8 15 09 27.7 162.2 970 75 5 Image Chart
2017 8 15 12 28.3 162.2 975 70 5 Image Chart
2017 8 15 15 29.0 162.4 975 70 5 Image Chart
2017 8 15 18 29.8 162.6 980 65 5 Image Chart
2017 8 15 21 30.6 162.9 980 65 5 Image Chart
2017 8 16 00 31.3 163.4 980 65 5 Image Chart
2017 8 16 03 32.2 164.3 980 65 5 Image Chart
2017 8 16 06 33.2 165.2 980 65 5 Image Chart
2017 8 16 09 34.3 166.4 980 65 5 Image Chart
2017 8 16 12 35.2 167.3 980 65 5 Image Chart
2017 8 16 15 36.3 168.5 980 65 5 Image Chart
2017 8 16 18 37.5 169.8 985 60 4 Image Chart
2017 8 16 21 39.0 171.8 985 60 4 Image Chart
2017 8 17 00 40.1 173.6 992 50 4 Image Chart
2017 8 17 03 41.7 174.9 992 50 4 Image Chart
2017 8 17 06 43.0 176.0 996 0 6 Image Chart
Japan Meteorological Agency Best Track Data | Correction Date : 2017-08-17
< Typhoon 201711 2017 Season

Help